sensor_id;sensor_type;location;lat;lon;timestamp;P1;durP1;ratioP1;P2;durP2;ratioP2
26530;SDS011;14201;43.188;24.160;2023-12-28T00:01:31;16.55;;;9.00;;
26530;SDS011;14201;43.188;24.160;2023-12-28T00:03:57;14.80;;;8.90;;
26530;SDS011;14201;43.188;24.160;2023-12-28T00:06:22;13.95;;;8.95;;
26530;SDS011;14201;43.188;24.160;2023-12-28T00:08:48;14.63;;;8.80;;
26530;SDS011;14201;43.188;24.160;2023-12-28T00:11:13;18.40;;;9.27;;
26530;SDS011;14201;43.188;24.160;2023-12-28T00:13:39;13.75;;;8.55;;
26530;SDS011;14201;43.188;24.160;2023-12-28T00:16:05;14.05;;;8.05;;
26530;SDS011;14201;43.188;24.160;2023-12-28T00:18:32;14.30;;;8.68;;
26530;SDS011;14201;43.188;24.160;2023-12-28T00:20:57;16.45;;;8.73;;
26530;SDS011;14201;43.188;24.160;2023-12-28T00:23:23;16.23;;;8.40;;
26530;SDS011;14201;43.188;24.160;2023-12-28T00:25:48;12.93;;;7.93;;
26530;SDS011;14201;43.188;24.160;2023-12-28T00:28:14;14.95;;;8.27;;
26530;SDS011;14201;43.188;24.160;2023-12-28T00:30:39;11.13;;;7.28;;
26530;SDS011;14201;43.188;24.160;2023-12-28T00:33:05;13.73;;;7.75;;
26530;SDS011;14201;43.188;24.160;2023-12-28T00:35:30;13.82;;;6.97;;
26530;SDS011;14201;43.188;24.160;2023-12-28T00:37:56;12.43;;;7.28;;
26530;SDS011;14201;43.188;24.160;2023-12-28T00:40:22;12.70;;;7.78;;
26530;SDS011;14201;43.188;24.160;2023-12-28T00:42:48;11.55;;;7.20;;
26530;SDS011;14201;43.188;24.160;2023-12-28T00:45:14;11.90;;;7.25;;
26530;SDS011;14201;43.188;24.160;2023-12-28T00:47:39;12.15;;;6.70;;
26530;SDS011;14201;43.188;24.160;2023-12-28T00:50:08;9.55;;;6.45;;
26530;SDS011;14201;43.188;24.160;2023-12-28T00:52:36;10.32;;;6.95;;
26530;SDS011;14201;43.188;24.160;2023-12-28T00:55:02;12.32;;;7.60;;
26530;SDS011;14201;43.188;24.160;2023-12-28T00:57:28;10.73;;;6.95;;
26530;SDS011;14201;43.188;24.160;2023-12-28T00:59:54;10.80;;;6.65;;
26530;SDS011;14201;43.188;24.160;2023-12-28T01:02:19;13.70;;;7.30;;
26530;SDS011;14201;43.188;24.160;2023-12-28T01:04:45;11.45;;;6.97;;
26530;SDS011;14201;43.188;24.160;2023-12-28T01:07:10;11.55;;;7.25;;
26530;SDS011;14201;43.188;24.160;2023-12-28T01:09:36;11.30;;;7.38;;
26530;SDS011;14201;43.188;24.160;2023-12-28T01:12:02;10.15;;;6.72;;
26530;SDS011;14201;43.188;24.160;2023-12-28T01:14:28;12.38;;;7.65;;
26530;SDS011;14201;43.188;24.160;2023-12-28T01:16:53;11.98;;;7.47;;
26530;SDS011;14201;43.188;24.160;2023-12-28T01:19:19;12.85;;;7.18;;
26530;SDS011;14201;43.188;24.160;2023-12-28T01:21:44;15.13;;;8.18;;
26530;SDS011;14201;43.188;24.160;2023-12-28T01:24:10;13.00;;;7.75;;
26530;SDS011;14201;43.188;24.160;2023-12-28T01:26:35;11.77;;;7.63;;
26530;SDS011;14201;43.188;24.160;2023-12-28T01:29:01;14.60;;;7.82;;
26530;SDS011;14201;43.188;24.160;2023-12-28T01:31:28;13.57;;;7.85;;
26530;SDS011;14201;43.188;24.160;2023-12-28T01:33:54;15.70;;;7.63;;
26530;SDS011;14201;43.188;24.160;2023-12-28T01:36:20;12.15;;;7.38;;
26530;SDS011;14201;43.188;24.160;2023-12-28T01:38:46;11.13;;;7.03;;
26530;SDS011;14201;43.188;24.160;2023-12-28T01:41:12;12.18;;;7.60;;
26530;SDS011;14201;43.188;24.160;2023-12-28T01:43:38;11.88;;;7.10;;
26530;SDS011;14201;43.188;24.160;2023-12-28T01:46:08;10.98;;;6.97;;
26530;SDS011;14201;43.188;24.160;2023-12-28T01:48:40;11.32;;;6.78;;
26530;SDS011;14201;43.188;24.160;2023-12-28T01:51:07;13.35;;;6.80;;
26530;SDS011;14201;43.188;24.160;2023-12-28T01:53:33;11.60;;;7.00;;
26530;SDS011;14201;43.188;24.160;2023-12-28T01:55:58;12.65;;;6.72;;
26530;SDS011;14201;43.188;24.160;2023-12-28T01:58:25;10.95;;;6.82;;
26530;SDS011;14201;43.188;24.160;2023-12-28T02:00:55;9.73;;;6.30;;
26530;SDS011;14201;43.188;24.160;2023-12-28T02:03:21;10.90;;;6.50;;
26530;SDS011;14201;43.188;24.160;2023-12-28T02:05:47;12.68;;;6.60;;
26530;SDS011;14201;43.188;24.160;2023-12-28T02:08:13;9.73;;;6.05;;
26530;SDS011;14201;43.188;24.160;2023-12-28T02:10:39;11.50;;;6.15;;
26530;SDS011;14201;43.188;24.160;2023-12-28T02:13:04;10.98;;;6.25;;
26530;SDS011;14201;43.188;24.160;2023-12-28T02:15:30;11.40;;;6.78;;
26530;SDS011;14201;43.188;24.160;2023-12-28T02:18:39;14.05;;;6.57;;
26530;SDS011;14201;43.188;24.160;2023-12-28T02:23:13;11.50;;;6.10;;
26530;SDS011;14201;43.188;24.160;2023-12-28T02:25:40;11.70;;;7.10;;
26530;SDS011;14201;43.188;24.160;2023-12-28T02:28:06;13.45;;;6.35;;
26530;SDS011;14201;43.188;24.160;2023-12-28T02:30:31;9.82;;;6.20;;
26530;SDS011;14201;43.188;24.160;2023-12-28T02:33:11;11.25;;;6.55;;
26530;SDS011;14201;43.188;24.160;2023-12-28T02:36:02;12.00;;;6.63;;
26530;SDS011;14201;43.188;24.160;2023-12-28T02:38:32;10.18;;;6.70;;
26530;SDS011;14201;43.188;24.160;2023-12-28T02:41:01;12.77;;;6.45;;
26530;SDS011;14201;43.188;24.160;2023-12-28T02:43:28;12.68;;;6.28;;
26530;SDS011;14201;43.188;24.160;2023-12-28T02:45:54;11.40;;;6.03;;
26530;SDS011;14201;43.188;24.160;2023-12-28T02:48:20;11.82;;;6.28;;
26530;SDS011;14201;43.188;24.160;2023-12-28T02:50:46;12.43;;;6.38;;
26530;SDS011;14201;43.188;24.160;2023-12-28T02:53:12;10.95;;;5.93;;
26530;SDS011;14201;43.188;24.160;2023-12-28T02:55:38;13.98;;;6.45;;
26530;SDS011;14201;43.188;24.160;2023-12-28T02:58:03;11.50;;;6.35;;
26530;SDS011;14201;43.188;24.160;2023-12-28T03:00:29;10.70;;;5.82;;
26530;SDS011;14201;43.188;24.160;2023-12-28T03:02:54;11.57;;;6.07;;
26530;SDS011;14201;43.188;24.160;2023-12-28T03:05:20;12.05;;;6.32;;
26530;SDS011;14201;43.188;24.160;2023-12-28T03:07:49;9.40;;;5.95;;
26530;SDS011;14201;43.188;24.160;2023-12-28T03:10:15;10.88;;;6.15;;
26530;SDS011;14201;43.188;24.160;2023-12-28T03:12:40;11.15;;;5.97;;
26530;SDS011;14201;43.188;24.160;2023-12-28T03:15:06;10.27;;;6.15;;
26530;SDS011;14201;43.188;24.160;2023-12-28T03:17:32;11.90;;;5.75;;
26530;SDS011;14201;43.188;24.160;2023-12-28T03:19:58;12.27;;;6.78;;
26530;SDS011;14201;43.188;24.160;2023-12-28T03:22:24;11.93;;;6.70;;
26530;SDS011;14201;43.188;24.160;2023-12-28T03:24:50;10.48;;;6.00;;
26530;SDS011;14201;43.188;24.160;2023-12-28T03:27:16;11.07;;;6.40;;
26530;SDS011;14201;43.188;24.160;2023-12-28T03:29:42;9.13;;;5.90;;
26530;SDS011;14201;43.188;24.160;2023-12-28T03:32:11;12.63;;;6.23;;
26530;SDS011;14201;43.188;24.160;2023-12-28T03:34:37;10.52;;;6.05;;
26530;SDS011;14201;43.188;24.160;2023-12-28T03:37:02;11.13;;;6.32;;
26530;SDS011;14201;43.188;24.160;2023-12-28T03:39:28;11.65;;;5.90;;
26530;SDS011;14201;43.188;24.160;2023-12-28T03:41:54;13.57;;;5.53;;
26530;SDS011;14201;43.188;24.160;2023-12-28T03:44:20;12.77;;;6.45;;
26530;SDS011;14201;43.188;24.160;2023-12-28T03:46:48;12.07;;;6.85;;
26530;SDS011;14201;43.188;24.160;2023-12-28T03:49:18;12.15;;;7.45;;
26530;SDS011;14201;43.188;24.160;2023-12-28T03:51:44;9.35;;;6.40;;
26530;SDS011;14201;43.188;24.160;2023-12-28T03:54:10;10.60;;;6.78;;
26530;SDS011;14201;43.188;24.160;2023-12-28T03:56:36;14.13;;;6.47;;
26530;SDS011;14201;43.188;24.160;2023-12-28T03:59:05;13.32;;;6.85;;
26530;SDS011;14201;43.188;24.160;2023-12-28T04:01:32;10.75;;;6.20;;
26530;SDS011;14201;43.188;24.160;2023-12-28T04:03:58;11.00;;;6.72;;
26530;SDS011;14201;43.188;24.160;2023-12-28T04:06:23;10.95;;;6.78;;
26530;SDS011;14201;43.188;24.160;2023-12-28T04:08:49;12.18;;;6.95;;
26530;SDS011;14201;43.188;24.160;2023-12-28T04:11:14;12.20;;;6.47;;
26530;SDS011;14201;43.188;24.160;2023-12-28T04:13:40;13.70;;;7.25;;
26530;SDS011;14201;43.188;24.160;2023-12-28T04:16:06;11.88;;;7.47;;
26530;SDS011;14201;43.188;24.160;2023-12-28T04:18:32;11.68;;;7.43;;
26530;SDS011;14201;43.188;24.160;2023-12-28T04:20:58;12.18;;;7.50;;
26530;SDS011;14201;43.188;24.160;2023-12-28T04:23:23;14.10;;;8.18;;
26530;SDS011;14201;43.188;24.160;2023-12-28T04:25:50;16.27;;;7.95;;
26530;SDS011;14201;43.188;24.160;2023-12-28T04:28:16;14.43;;;7.63;;
26530;SDS011;14201;43.188;24.160;2023-12-28T04:30:41;12.77;;;7.35;;
26530;SDS011;14201;43.188;24.160;2023-12-28T04:33:07;13.13;;;7.53;;
26530;SDS011;14201;43.188;24.160;2023-12-28T04:35:32;12.13;;;7.05;;
26530;SDS011;14201;43.188;24.160;2023-12-28T04:37:58;13.48;;;6.63;;
26530;SDS011;14201;43.188;24.160;2023-12-28T04:40:23;11.48;;;6.50;;
26530;SDS011;14201;43.188;24.160;2023-12-28T04:42:49;11.25;;;6.20;;
26530;SDS011;14201;43.188;24.160;2023-12-28T04:45:14;12.77;;;6.80;;
26530;SDS011;14201;43.188;24.160;2023-12-28T04:47:40;11.50;;;6.10;;
26530;SDS011;14201;43.188;24.160;2023-12-28T04:50:06;10.00;;;6.30;;
26530;SDS011;14201;43.188;24.160;2023-12-28T04:52:35;10.70;;;6.10;;
26530;SDS011;14201;43.188;24.160;2023-12-28T04:55:01;9.90;;;5.90;;
26530;SDS011;14201;43.188;24.160;2023-12-28T04:57:26;12.27;;;5.78;;
26530;SDS011;14201;43.188;24.160;2023-12-28T04:59:53;11.18;;;6.07;;
26530;SDS011;14201;43.188;24.160;2023-12-28T05:02:19;9.55;;;5.68;;
26530;SDS011;14201;43.188;24.160;2023-12-28T05:04:44;10.15;;;5.72;;
26530;SDS011;14201;43.188;24.160;2023-12-28T05:07:10;9.82;;;6.18;;
26530;SDS011;14201;43.188;24.160;2023-12-28T05:09:36;10.95;;;6.15;;
26530;SDS011;14201;43.188;24.160;2023-12-28T05:12:01;13.80;;;6.70;;
26530;SDS011;14201;43.188;24.160;2023-12-28T05:14:27;14.68;;;7.20;;
26530;SDS011;14201;43.188;24.160;2023-12-28T05:16:53;11.75;;;6.45;;
26530;SDS011;14201;43.188;24.160;2023-12-28T05:19:18;10.23;;;6.28;;
26530;SDS011;14201;43.188;24.160;2023-12-28T05:21:44;12.10;;;6.10;;
26530;SDS011;14201;43.188;24.160;2023-12-28T05:24:11;12.57;;;6.13;;
26530;SDS011;14201;43.188;24.160;2023-12-28T05:26:37;9.60;;;5.72;;
26530;SDS011;14201;43.188;24.160;2023-12-28T05:29:02;13.48;;;6.50;;
26530;SDS011;14201;43.188;24.160;2023-12-28T05:31:28;10.77;;;6.15;;
26530;SDS011;14201;43.188;24.160;2023-12-28T05:33:54;14.65;;;6.65;;
26530;SDS011;14201;43.188;24.160;2023-12-28T05:36:19;11.35;;;6.07;;
26530;SDS011;14201;43.188;24.160;2023-12-28T05:38:45;9.95;;;5.57;;
26530;SDS011;14201;43.188;24.160;2023-12-28T05:41:11;12.55;;;6.38;;
26530;SDS011;14201;43.188;24.160;2023-12-28T05:43:37;11.05;;;6.13;;
26530;SDS011;14201;43.188;24.160;2023-12-28T05:46:03;10.60;;;5.78;;
26530;SDS011;14201;43.188;24.160;2023-12-28T05:48:29;11.20;;;6.20;;
26530;SDS011;14201;43.188;24.160;2023-12-28T05:50:54;13.48;;;6.90;;
26530;SDS011;14201;43.188;24.160;2023-12-28T05:53:20;13.13;;;6.70;;
26530;SDS011;14201;43.188;24.160;2023-12-28T05:55:45;12.57;;;7.03;;
26530;SDS011;14201;43.188;24.160;2023-12-28T05:58:11;13.25;;;6.13;;
26530;SDS011;14201;43.188;24.160;2023-12-28T06:00:37;13.75;;;6.85;;
26530;SDS011;14201;43.188;24.160;2023-12-28T06:03:04;11.77;;;6.22;;
26530;SDS011;14201;43.188;24.160;2023-12-28T06:05:30;8.95;;;5.50;;
26530;SDS011;14201;43.188;24.160;2023-12-28T06:07:56;12.15;;;6.28;;
26530;SDS011;14201;43.188;24.160;2023-12-28T06:10:21;10.15;;;6.00;;
26530;SDS011;14201;43.188;24.160;2023-12-28T06:12:47;9.50;;;5.55;;
26530;SDS011;14201;43.188;24.160;2023-12-28T06:15:12;10.38;;;6.05;;
26530;SDS011;14201;43.188;24.160;2023-12-28T06:17:38;10.52;;;6.53;;
26530;SDS011;14201;43.188;24.160;2023-12-28T06:20:04;12.10;;;6.03;;
26530;SDS011;14201;43.188;24.160;2023-12-28T06:22:30;9.90;;;5.57;;
26530;SDS011;14201;43.188;24.160;2023-12-28T06:24:56;9.23;;;5.78;;
26530;SDS011;14201;43.188;24.160;2023-12-28T06:27:22;10.23;;;5.75;;
26530;SDS011;14201;43.188;24.160;2023-12-28T06:29:49;9.68;;;5.82;;
26530;SDS011;14201;43.188;24.160;2023-12-28T06:32:14;9.90;;;5.95;;
26530;SDS011;14201;43.188;24.160;2023-12-28T06:34:40;11.02;;;6.30;;
26530;SDS011;14201;43.188;24.160;2023-12-28T06:37:06;9.15;;;5.60;;
26530;SDS011;14201;43.188;24.160;2023-12-28T06:39:31;9.02;;;5.53;;
26530;SDS011;14201;43.188;24.160;2023-12-28T06:41:57;14.98;;;6.47;;
26530;SDS011;14201;43.188;24.160;2023-12-28T06:44:23;19.10;;;9.52;;
26530;SDS011;14201;43.188;24.160;2023-12-28T06:46:48;15.75;;;9.98;;
26530;SDS011;14201;43.188;24.160;2023-12-28T06:49:14;10.32;;;6.70;;
26530;SDS011;14201;43.188;24.160;2023-12-28T06:51:39;20.55;;;8.18;;
26530;SDS011;14201;43.188;24.160;2023-12-28T06:54:05;12.90;;;7.53;;
26530;SDS011;14201;43.188;24.160;2023-12-28T06:56:30;11.30;;;6.55;;
26530;SDS011;14201;43.188;24.160;2023-12-28T06:58:56;9.63;;;5.85;;
26530;SDS011;14201;43.188;24.160;2023-12-28T07:01:22;10.23;;;5.35;;
26530;SDS011;14201;43.188;24.160;2023-12-28T07:03:47;8.82;;;5.45;;
26530;SDS011;14201;43.188;24.160;2023-12-28T07:06:13;11.95;;;6.50;;
26530;SDS011;14201;43.188;24.160;2023-12-28T07:08:39;9.73;;;5.97;;
26530;SDS011;14201;43.188;24.160;2023-12-28T07:11:05;10.88;;;5.93;;
26530;SDS011;14201;43.188;24.160;2023-12-28T07:13:30;10.43;;;5.88;;
26530;SDS011;14201;43.188;24.160;2023-12-28T07:15:56;11.27;;;6.20;;
26530;SDS011;14201;43.188;24.160;2023-12-28T07:18:22;10.82;;;5.75;;
26530;SDS011;14201;43.188;24.160;2023-12-28T07:20:48;9.63;;;5.88;;
26530;SDS011;14201;43.188;24.160;2023-12-28T07:23:14;8.07;;;5.28;;
26530;SDS011;14201;43.188;24.160;2023-12-28T07:25:39;9.70;;;5.82;;
26530;SDS011;14201;43.188;24.160;2023-12-28T07:28:05;10.98;;;6.80;;
26530;SDS011;14201;43.188;24.160;2023-12-28T07:30:31;8.60;;;5.07;;
26530;SDS011;14201;43.188;24.160;2023-12-28T07:32:56;9.85;;;5.30;;
26530;SDS011;14201;43.188;24.160;2023-12-28T07:35:22;9.82;;;5.72;;
26530;SDS011;14201;43.188;24.160;2023-12-28T07:37:48;9.15;;;5.72;;
26530;SDS011;14201;43.188;24.160;2023-12-28T07:40:14;8.82;;;5.80;;
26530;SDS011;14201;43.188;24.160;2023-12-28T07:42:40;9.50;;;5.68;;
26530;SDS011;14201;43.188;24.160;2023-12-28T07:45:06;8.00;;;4.90;;
26530;SDS011;14201;43.188;24.160;2023-12-28T07:47:32;10.00;;;4.93;;
26530;SDS011;14201;43.188;24.160;2023-12-28T07:49:58;9.30;;;4.35;;
26530;SDS011;14201;43.188;24.160;2023-12-28T07:52:25;7.15;;;4.35;;
26530;SDS011;14201;43.188;24.160;2023-12-28T07:54:51;9.75;;;4.88;;
26530;SDS011;14201;43.188;24.160;2023-12-28T07:57:17;8.07;;;4.88;;
26530;SDS011;14201;43.188;24.160;2023-12-28T07:59:43;8.05;;;4.82;;
26530;SDS011;14201;43.188;24.160;2023-12-28T08:02:09;7.40;;;4.80;;
26530;SDS011;14201;43.188;24.160;2023-12-28T08:04:34;8.48;;;4.50;;
26530;SDS011;14201;43.188;24.160;2023-12-28T08:07:00;8.80;;;4.88;;
26530;SDS011;14201;43.188;24.160;2023-12-28T08:09:26;7.18;;;4.32;;
26530;SDS011;14201;43.188;24.160;2023-12-28T08:11:52;7.72;;;4.78;;
26530;SDS011;14201;43.188;24.160;2023-12-28T08:14:17;7.10;;;4.03;;
26530;SDS011;14201;43.188;24.160;2023-12-28T08:16:44;7.35;;;3.88;;
26530;SDS011;14201;43.188;24.160;2023-12-28T08:19:09;7.88;;;4.35;;
26530;SDS011;14201;43.188;24.160;2023-12-28T08:21:35;7.90;;;4.55;;
26530;SDS011;14201;43.188;24.160;2023-12-28T08:24:01;9.25;;;4.47;;
26530;SDS011;14201;43.188;24.160;2023-12-28T08:26:27;10.82;;;4.57;;
26530;SDS011;14201;43.188;24.160;2023-12-28T08:28:53;9.93;;;4.40;;
26530;SDS011;14201;43.188;24.160;2023-12-28T08:31:19;7.30;;;3.88;;
26530;SDS011;14201;43.188;24.160;2023-12-28T08:33:44;7.82;;;3.95;;
26530;SDS011;14201;43.188;24.160;2023-12-28T08:36:10;7.80;;;3.40;;
26530;SDS011;14201;43.188;24.160;2023-12-28T08:38:37;8.15;;;3.42;;
26530;SDS011;14201;43.188;24.160;2023-12-28T08:41:03;5.50;;;3.33;;
26530;SDS011;14201;43.188;24.160;2023-12-28T08:43:33;7.40;;;3.80;;
26530;SDS011;14201;43.188;24.160;2023-12-28T08:46:00;5.75;;;3.58;;
26530;SDS011;14201;43.188;24.160;2023-12-28T08:48:25;7.05;;;3.65;;
26530;SDS011;14201;43.188;24.160;2023-12-28T08:50:51;7.28;;;3.60;;
26530;SDS011;14201;43.188;24.160;2023-12-28T08:53:17;6.38;;;3.53;;
26530;SDS011;14201;43.188;24.160;2023-12-28T08:55:42;6.20;;;3.80;;
26530;SDS011;14201;43.188;24.160;2023-12-28T08:58:08;9.00;;;3.63;;
26530;SDS011;14201;43.188;24.160;2023-12-28T09:00:33;5.65;;;3.20;;
26530;SDS011;14201;43.188;24.160;2023-12-28T09:02:59;5.30;;;3.05;;
26530;SDS011;14201;43.188;24.160;2023-12-28T09:05:25;6.65;;;3.60;;
26530;SDS011;14201;43.188;24.160;2023-12-28T09:07:50;5.25;;;3.33;;
26530;SDS011;14201;43.188;24.160;2023-12-28T09:10:16;5.65;;;3.30;;
26530;SDS011;14201;43.188;24.160;2023-12-28T09:12:41;6.60;;;3.30;;
26530;SDS011;14201;43.188;24.160;2023-12-28T09:15:07;5.32;;;2.85;;
26530;SDS011;14201;43.188;24.160;2023-12-28T09:17:34;5.03;;;3.13;;
26530;SDS011;14201;43.188;24.160;2023-12-28T09:20:00;6.40;;;2.85;;
26530;SDS011;14201;43.188;24.160;2023-12-28T09:22:26;5.85;;;2.95;;
26530;SDS011;14201;43.188;24.160;2023-12-28T09:24:52;4.90;;;3.00;;
26530;SDS011;14201;43.188;24.160;2023-12-28T09:27:19;6.82;;;2.95;;
26530;SDS011;14201;43.188;24.160;2023-12-28T09:29:45;5.88;;;3.03;;
26530;SDS011;14201;43.188;24.160;2023-12-28T13:49:21;9.80;;;6.40;;
26530;SDS011;14201;43.188;24.160;2023-12-28T13:51:47;13.02;;;6.07;;
26530;SDS011;14201;43.188;24.160;2023-12-28T13:54:13;11.43;;;6.80;;
26530;SDS011;14201;43.188;24.160;2023-12-28T13:56:38;9.98;;;6.13;;
26530;SDS011;14201;43.188;24.160;2023-12-28T14:35:33;16.50;;;8.80;;
26530;SDS011;14201;43.188;24.160;2023-12-28T14:37:59;18.27;;;10.13;;
26530;SDS011;14201;43.188;24.160;2023-12-28T14:40:25;14.57;;;9.77;;
26530;SDS011;14201;43.188;24.160;2023-12-28T14:42:51;16.73;;;8.90;;
26530;SDS011;14201;43.188;24.160;2023-12-28T14:45:16;24.40;;;8.60;;
26530;SDS011;14201;43.188;24.160;2023-12-28T14:47:42;14.00;;;8.25;;
26530;SDS011;14201;43.188;24.160;2023-12-28T14:50:08;17.05;;;8.75;;
26530;SDS011;14201;43.188;24.160;2023-12-28T14:52:34;15.68;;;8.10;;
26530;SDS011;14201;43.188;24.160;2023-12-28T14:55:03;15.38;;;7.25;;
26530;SDS011;14201;43.188;24.160;2023-12-28T14:57:29;13.48;;;7.95;;
26530;SDS011;14201;43.188;24.160;2023-12-28T14:59:54;9.98;;;7.20;;
26530;SDS011;14201;43.188;24.160;2023-12-28T15:02:20;14.98;;;7.65;;
26530;SDS011;14201;43.188;24.160;2023-12-28T15:04:45;13.00;;;8.02;;
26530;SDS011;14201;43.188;24.160;2023-12-28T15:07:11;18.55;;;12.43;;
26530;SDS011;14201;43.188;24.160;2023-12-28T15:09:37;19.45;;;9.85;;
26530;SDS011;14201;43.188;24.160;2023-12-28T15:12:03;14.48;;;8.43;;
26530;SDS011;14201;43.188;24.160;2023-12-28T15:14:29;14.23;;;8.30;;
26530;SDS011;14201;43.188;24.160;2023-12-28T15:16:55;14.43;;;8.00;;
26530;SDS011;14201;43.188;24.160;2023-12-28T15:19:21;12.27;;;7.35;;
26530;SDS011;14201;43.188;24.160;2023-12-28T15:46:03;24.40;;;14.10;;
26530;SDS011;14201;43.188;24.160;2023-12-28T16:27:20;51.22;;;25.40;;
26530;SDS011;14201;43.188;24.160;2023-12-28T16:29:45;70.45;;;37.15;;
26530;SDS011;14201;43.188;24.160;2023-12-28T16:32:11;97.05;;;51.58;;
26530;SDS011;14201;43.188;24.160;2023-12-28T16:34:37;93.57;;;50.28;;
26530;SDS011;14201;43.188;24.160;2023-12-28T16:37:02;96.80;;;49.83;;
26530;SDS011;14201;43.188;24.160;2023-12-28T16:39:28;103.13;;;53.58;;
26530;SDS011;14201;43.188;24.160;2023-12-28T16:41:54;80.32;;;43.88;;
26530;SDS011;14201;43.188;24.160;2023-12-28T16:44:19;100.22;;;54.90;;
26530;SDS011;14201;43.188;24.160;2023-12-28T16:46:46;113.15;;;60.85;;
26530;SDS011;14201;43.188;24.160;2023-12-28T16:49:13;112.22;;;63.75;;
26530;SDS011;14201;43.188;24.160;2023-12-28T16:51:40;114.18;;;60.88;;
26530;SDS011;14201;43.188;24.160;2023-12-28T16:54:06;61.47;;;28.88;;
26530;SDS011;14201;43.188;24.160;2023-12-28T16:56:31;63.38;;;34.58;;
26530;SDS011;14201;43.188;24.160;2023-12-28T16:58:57;73.90;;;38.40;;
26530;SDS011;14201;43.188;24.160;2023-12-28T17:31:23;48.25;;;27.85;;
26530;SDS011;14201;43.188;24.160;2023-12-28T17:33:49;65.03;;;34.80;;
26530;SDS011;14201;43.188;24.160;2023-12-28T17:36:15;52.05;;;29.80;;
26530;SDS011;14201;43.188;24.160;2023-12-28T17:38:41;62.53;;;30.27;;
26530;SDS011;14201;43.188;24.160;2023-12-28T17:41:09;59.15;;;33.50;;
26530;SDS011;14201;43.188;24.160;2023-12-28T17:43:44;66.22;;;35.53;;
26530;SDS011;14201;43.188;24.160;2023-12-28T17:48:45;60.70;;;33.63;;
26530;SDS011;14201;43.188;24.160;2023-12-28T17:51:13;60.97;;;31.98;;
26530;SDS011;14201;43.188;24.160;2023-12-28T17:53:40;58.63;;;32.53;;
26530;SDS011;14201;43.188;24.160;2023-12-28T17:56:06;71.05;;;35.90;;
26530;SDS011;14201;43.188;24.160;2023-12-28T19:04:03;50.53;;;27.60;;
26530;SDS011;14201;43.188;24.160;2023-12-28T19:06:29;64.03;;;25.92;;
26530;SDS011;14201;43.188;24.160;2023-12-28T19:08:55;44.92;;;24.77;;
26530;SDS011;14201;43.188;24.160;2023-12-28T19:11:22;39.88;;;22.88;;
26530;SDS011;14201;43.188;24.160;2023-12-28T19:13:47;37.70;;;23.45;;
26530;SDS011;14201;43.188;24.160;2023-12-28T19:16:21;41.72;;;24.80;;
26530;SDS011;14201;43.188;24.160;2023-12-28T19:18:50;48.15;;;25.15;;
26530;SDS011;14201;43.188;24.160;2023-12-28T19:21:16;43.95;;;25.83;;
26530;SDS011;14201;43.188;24.160;2023-12-28T20:02:33;38.25;;;22.35;;
26530;SDS011;14201;43.188;24.160;2023-12-28T20:04:59;36.90;;;22.30;;
26530;SDS011;14201;43.188;24.160;2023-12-28T20:07:26;32.92;;;21.50;;
26530;SDS011;14201;43.188;24.160;2023-12-28T20:09:51;35.92;;;21.73;;
26530;SDS011;14201;43.188;24.160;2023-12-28T20:12:17;40.20;;;22.13;;
26530;SDS011;14201;43.188;24.160;2023-12-28T20:48:44;35.08;;;20.42;;
26530;SDS011;14201;43.188;24.160;2023-12-28T20:51:13;39.40;;;22.20;;
26530;SDS011;14201;43.188;24.160;2023-12-28T20:53:39;39.85;;;23.75;;
26530;SDS011;14201;43.188;24.160;2023-12-28T20:56:06;42.30;;;23.88;;
26530;SDS011;14201;43.188;24.160;2023-12-28T20:58:31;38.78;;;23.58;;
26530;SDS011;14201;43.188;24.160;2023-12-28T21:00:57;39.72;;;24.25;;
26530;SDS011;14201;43.188;24.160;2023-12-28T21:03:23;35.22;;;19.92;;
26530;SDS011;14201;43.188;24.160;2023-12-28T21:05:48;30.15;;;19.77;;
26530;SDS011;14201;43.188;24.160;2023-12-28T21:08:14;36.35;;;21.23;;
26530;SDS011;14201;43.188;24.160;2023-12-28T21:10:39;34.22;;;21.15;;
26530;SDS011;14201;43.188;24.160;2023-12-28T21:13:05;40.40;;;20.95;;
26530;SDS011;14201;43.188;24.160;2023-12-28T21:15:31;36.65;;;21.80;;
26530;SDS011;14201;43.188;24.160;2023-12-28T21:17:57;35.33;;;21.58;;
26530;SDS011;14201;43.188;24.160;2023-12-28T21:20:24;41.80;;;22.08;;
26530;SDS011;14201;43.188;24.160;2023-12-28T21:22:50;35.95;;;22.83;;
26530;SDS011;14201;43.188;24.160;2023-12-28T21:25:16;47.50;;;25.15;;
26530;SDS011;14201;43.188;24.160;2023-12-28T21:27:42;40.90;;;23.30;;
26530;SDS011;14201;43.188;24.160;2023-12-28T21:30:07;40.30;;;22.85;;
26530;SDS011;14201;43.188;24.160;2023-12-28T21:32:34;55.40;;;25.45;;
26530;SDS011;14201;43.188;24.160;2023-12-28T21:35:01;34.58;;;20.08;;
26530;SDS011;14201;43.188;24.160;2023-12-28T21:37:27;30.73;;;19.13;;
26530;SDS011;14201;43.188;24.160;2023-12-28T21:39:52;35.22;;;19.90;;
26530;SDS011;14201;43.188;24.160;2023-12-28T21:42:18;34.33;;;21.10;;
26530;SDS011;14201;43.188;24.160;2023-12-28T21:44:44;36.53;;;21.30;;
26530;SDS011;14201;43.188;24.160;2023-12-28T21:47:09;30.05;;;20.70;;
26530;SDS011;14201;43.188;24.160;2023-12-28T21:49:39;25.73;;;16.65;;
26530;SDS011;14201;43.188;24.160;2023-12-28T21:52:06;37.50;;;23.45;;
26530;SDS011;14201;43.188;24.160;2023-12-28T21:54:33;38.45;;;23.15;;
26530;SDS011;14201;43.188;24.160;2023-12-28T21:56:58;33.78;;;21.67;;
26530;SDS011;14201;43.188;24.160;2023-12-28T21:59:24;35.65;;;21.08;;
26530;SDS011;14201;43.188;24.160;2023-12-28T22:01:51;31.30;;;20.33;;
26530;SDS011;14201;43.188;24.160;2023-12-28T22:04:17;32.80;;;20.92;;
26530;SDS011;14201;43.188;24.160;2023-12-28T22:06:48;34.63;;;21.73;;
26530;SDS011;14201;43.188;24.160;2023-12-28T22:09:16;40.70;;;23.42;;
26530;SDS011;14201;43.188;24.160;2023-12-28T22:11:42;33.83;;;21.15;;
26530;SDS011;14201;43.188;24.160;2023-12-28T22:14:07;39.90;;;22.85;;
26530;SDS011;14201;43.188;24.160;2023-12-28T22:16:33;42.80;;;23.90;;
26530;SDS011;14201;43.188;24.160;2023-12-28T22:18:59;42.28;;;23.63;;
26530;SDS011;14201;43.188;24.160;2023-12-28T22:21:25;37.25;;;21.77;;
26530;SDS011;14201;43.188;24.160;2023-12-28T22:23:51;38.08;;;21.85;;
26530;SDS011;14201;43.188;24.160;2023-12-28T22:26:16;36.67;;;21.98;;
26530;SDS011;14201;43.188;24.160;2023-12-28T22:28:42;36.65;;;22.92;;
26530;SDS011;14201;43.188;24.160;2023-12-28T22:31:09;39.30;;;24.58;;
26530;SDS011;14201;43.188;24.160;2023-12-28T22:33:35;38.00;;;23.92;;
26530;SDS011;14201;43.188;24.160;2023-12-28T22:36:01;40.85;;;25.85;;
26530;SDS011;14201;43.188;24.160;2023-12-28T22:38:29;34.17;;;21.33;;
26530;SDS011;14201;43.188;24.160;2023-12-28T22:40:54;40.10;;;22.60;;
26530;SDS011;14201;43.188;24.160;2023-12-28T22:43:20;40.65;;;22.52;;
26530;SDS011;14201;43.188;24.160;2023-12-28T22:45:46;39.70;;;25.00;;
26530;SDS011;14201;43.188;24.160;2023-12-28T22:48:13;37.55;;;23.08;;
26530;SDS011;14201;43.188;24.160;2023-12-28T22:50:42;40.58;;;24.63;;
26530;SDS011;14201;43.188;24.160;2023-12-28T22:53:07;35.97;;;22.80;;
26530;SDS011;14201;43.188;24.160;2023-12-28T22:55:36;33.95;;;20.48;;
26530;SDS011;14201;43.188;24.160;2023-12-28T22:58:02;35.35;;;20.00;;
26530;SDS011;14201;43.188;24.160;2023-12-28T23:00:28;35.50;;;22.20;;
26530;SDS011;14201;43.188;24.160;2023-12-28T23:03:00;38.78;;;21.65;;
26530;SDS011;14201;43.188;24.160;2023-12-28T23:05:27;34.38;;;21.42;;